createdAt,value
2018-08-25T00:00:38.833Z,17.10
2018-08-25T00:03:06.888Z,17.10
2018-08-25T00:05:34.973Z,17.10
2018-08-25T00:08:03.042Z,17.00
2018-08-25T00:10:31.141Z,16.90
2018-08-25T00:12:59.180Z,16.80
2018-08-25T00:15:27.284Z,16.80
2018-08-25T00:17:55.354Z,16.80
2018-08-25T00:20:23.409Z,16.80
2018-08-25T00:22:51.463Z,16.70
2018-08-25T00:25:19.510Z,16.70
2018-08-25T00:27:47.561Z,16.70
2018-08-25T00:30:21.221Z,16.70
2018-08-25T00:32:49.289Z,16.70
2018-08-25T00:35:17.340Z,16.80
2018-08-25T00:37:45.408Z,16.70
2018-08-25T00:40:13.509Z,16.70
2018-08-25T00:42:41.549Z,16.70
2018-08-25T00:45:09.596Z,16.70
2018-08-25T00:47:37.658Z,16.70
2018-08-25T00:50:05.729Z,16.80
2018-08-25T00:52:33.764Z,16.70
2018-08-25T00:55:01.805Z,16.70
2018-08-25T00:57:29.881Z,16.60
2018-08-25T00:59:57.912Z,16.60
2018-08-25T01:02:26.069Z,16.60
2018-08-25T01:04:54.653Z,16.60
2018-08-25T01:07:22.712Z,16.60
2018-08-25T01:09:50.761Z,16.60
2018-08-25T01:12:18.801Z,16.60
2018-08-25T01:14:46.876Z,16.60
2018-08-25T01:17:14.922Z,16.60
2018-08-25T01:19:42.964Z,16.60
2018-08-25T01:22:11.013Z,16.60
2018-08-25T01:24:39.077Z,16.60
2018-08-25T01:27:07.145Z,16.60
2018-08-25T01:29:35.184Z,16.50
2018-08-25T01:32:03.574Z,16.50
2018-08-25T01:34:31.626Z,16.50
2018-08-25T01:36:59.665Z,16.50
2018-08-25T01:39:27.729Z,16.50
2018-08-25T01:41:55.769Z,16.40
2018-08-25T01:44:23.814Z,16.40
2018-08-25T01:46:51.901Z,16.40
2018-08-25T01:49:19.953Z,16.40
2018-08-25T01:51:48.067Z,16.40
2018-08-25T01:54:16.068Z,16.40
2018-08-25T01:56:44.118Z,16.50
2018-08-25T01:59:12.165Z,16.50
2018-08-25T02:01:40.232Z,16.50
2018-08-25T02:04:08.306Z,16.50
2018-08-25T02:06:36.357Z,16.40
2018-08-25T02:09:07.840Z,16.40
2018-08-25T02:11:35.876Z,16.40
2018-08-25T02:14:03.983Z,16.40
2018-08-25T02:16:32.033Z,16.30
2018-08-25T02:19:00.082Z,16.30
2018-08-25T02:21:28.149Z,16.30
2018-08-25T02:23:56.194Z,16.20
2018-08-25T02:26:24.233Z,16.30
2018-08-25T02:28:52.333Z,16.30
2018-08-25T02:31:20.373Z,16.30
2018-08-25T02:33:48.642Z,16.30
2018-08-25T02:36:17.017Z,16.30
2018-08-25T02:38:45.210Z,16.30
2018-08-25T02:41:13.181Z,16.30
2018-08-25T02:43:41.218Z,16.30
2018-08-25T02:46:09.273Z,16.20
2018-08-25T02:48:37.321Z,16.30
2018-08-25T02:51:05.360Z,16.20
2018-08-25T02:53:33.410Z,16.20
2018-08-25T02:56:01.454Z,16.20
2018-08-25T02:58:29.517Z,16.20
2018-08-25T03:00:57.556Z,16.20
2018-08-25T03:03:25.597Z,16.20
2018-08-25T03:05:53.666Z,16.10
2018-08-25T03:08:21.713Z,16.10
2018-08-25T03:10:49.769Z,16.10
2018-08-25T03:13:17.810Z,16.20
2018-08-25T03:15:45.871Z,16.20
2018-08-25T03:18:13.924Z,16.20
2018-08-25T03:20:41.972Z,16.30
2018-08-25T03:23:10.033Z,16.20
2018-08-25T03:25:38.073Z,16.10
2018-08-25T03:28:06.114Z,16.10
2018-08-25T03:30:34.188Z,16.10
2018-08-25T03:33:02.241Z,16.20
2018-08-25T03:35:30.297Z,16.20
2018-08-25T03:37:58.352Z,16.20
2018-08-25T03:40:26.401Z,16.20
2018-08-25T03:42:54.446Z,16.10
2018-08-25T03:45:22.484Z,16.10
2018-08-25T03:47:50.545Z,16.00
2018-08-25T03:50:18.585Z,16.00
2018-08-25T03:52:46.624Z,15.90
2018-08-25T03:55:14.678Z,15.90
2018-08-25T03:57:42.730Z,15.90
2018-08-25T04:00:10.798Z,15.90
2018-08-25T04:02:38.844Z,15.90
2018-08-25T04:05:06.917Z,15.90
2018-08-25T04:07:34.969Z,15.90
2018-08-25T04:10:03.012Z,15.90
2018-08-25T04:12:31.060Z,15.90
2018-08-25T04:14:59.220Z,15.80
2018-08-25T04:17:27.145Z,15.80
2018-08-25T04:19:55.238Z,15.90
2018-08-25T04:22:23.377Z,15.90
2018-08-25T04:24:51.360Z,15.80
2018-08-25T04:27:19.401Z,15.90
2018-08-25T04:29:47.481Z,15.90
2018-08-25T04:32:15.545Z,15.90
2018-08-25T04:34:43.594Z,15.90
2018-08-25T04:37:11.669Z,15.90
2018-08-25T04:39:39.701Z,15.90
2018-08-25T04:42:07.741Z,16.00
2018-08-25T04:44:35.805Z,16.00
2018-08-25T04:47:04.277Z,16.00
2018-08-25T04:49:32.345Z,16.00
2018-08-25T04:52:00.395Z,16.00
2018-08-25T04:54:28.433Z,16.00
2018-08-25T04:56:56.480Z,15.90
2018-08-25T04:59:24.517Z,15.90
2018-08-25T05:01:52.650Z,15.90
2018-08-25T05:04:20.646Z,15.90
2018-08-25T05:06:48.709Z,15.90
2018-08-25T05:09:16.764Z,15.90
2018-08-25T05:11:44.809Z,15.90
2018-08-25T05:14:12.877Z,15.80
2018-08-25T05:16:40.925Z,15.80
2018-08-25T05:19:08.980Z,15.80
2018-08-25T05:21:37.026Z,15.90
2018-08-25T05:24:05.103Z,15.80
2018-08-25T05:26:33.160Z,15.80
2018-08-25T05:29:01.208Z,15.80
2018-08-25T05:31:29.292Z,15.90
2018-08-25T05:33:57.348Z,15.90
2018-08-25T05:36:25.423Z,15.90
2018-08-25T05:38:53.490Z,16.00
2018-08-25T05:41:21.539Z,16.00
2018-08-25T05:43:49.596Z,16.10
2018-08-25T05:46:17.653Z,16.00
2018-08-25T05:48:45.707Z,16.10
2018-08-25T05:51:15.548Z,16.10
2018-08-25T05:53:43.617Z,16.20
2018-08-25T05:56:11.708Z,16.30
2018-08-25T05:58:39.765Z,16.20
2018-08-25T06:01:08.550Z,16.20
2018-08-25T06:03:36.616Z,16.20
2018-08-25T06:06:04.708Z,16.30
2018-08-25T06:08:32.837Z,16.20
2018-08-25T06:11:00.908Z,16.30
2018-08-25T06:13:29.039Z,16.20
2018-08-25T06:15:57.483Z,16.20
2018-08-25T06:18:25.541Z,16.20
2018-08-25T06:20:53.613Z,16.20
2018-08-25T06:23:21.700Z,16.10
2018-08-25T06:25:49.753Z,16.10
2018-08-25T06:28:17.869Z,16.10
2018-08-25T06:30:45.954Z,16.10
2018-08-25T06:33:14.009Z,16.10
2018-08-25T06:35:42.085Z,16.00
2018-08-25T06:38:10.187Z,16.00
2018-08-25T06:40:38.273Z,16.00
2018-08-25T06:43:06.361Z,16.00
2018-08-25T06:45:34.460Z,16.00
2018-08-25T06:48:02.526Z,16.00
2018-08-25T06:50:30.610Z,16.10
2018-08-25T06:52:58.757Z,16.20
2018-08-25T06:55:26.834Z,16.20
2018-08-25T06:57:54.889Z,16.20
2018-08-25T07:00:23.040Z,16.30
2018-08-25T07:02:51.100Z,16.30
2018-08-25T07:05:19.629Z,16.20
2018-08-25T07:07:48.047Z,16.30
2018-08-25T07:10:16.089Z,16.20
2018-08-25T07:12:44.456Z,16.20
2018-08-25T07:15:12.498Z,16.20
2018-08-25T07:17:43.094Z,16.30
2018-08-25T07:20:11.140Z,16.20
2018-08-25T07:22:39.198Z,16.20
2018-08-25T07:25:07.573Z,16.20
2018-08-25T07:27:35.648Z,16.20
2018-08-25T07:30:04.253Z,16.20
2018-08-25T07:32:32.315Z,16.30
2018-08-25T07:35:00.372Z,16.30
2018-08-25T07:37:28.460Z,16.40
2018-08-25T07:39:56.537Z,16.30
2018-08-25T07:42:24.617Z,16.30
2018-08-25T07:44:52.698Z,16.30
2018-08-25T07:47:20.816Z,16.30
2018-08-25T07:49:48.954Z,16.30
2018-08-25T07:52:17.061Z,16.40
2018-08-25T07:54:45.135Z,16.40
2018-08-25T07:57:13.208Z,16.40
2018-08-25T07:59:41.329Z,16.40
2018-08-25T08:02:09.461Z,16.40
2018-08-25T08:04:37.541Z,16.40
2018-08-25T08:07:05.618Z,16.50
2018-08-25T08:09:33.705Z,16.50
2018-08-25T08:12:01.842Z,16.50
2018-08-25T08:14:29.897Z,16.50
2018-08-25T08:16:57.986Z,16.50
2018-08-25T08:19:26.090Z,16.40
2018-08-25T08:21:54.161Z,16.40
2018-08-25T08:24:22.256Z,16.50
2018-08-25T08:26:50.350Z,16.50
2018-08-25T08:29:18.420Z,16.60
2018-08-25T08:31:46.530Z,16.70
2018-08-25T08:34:14.616Z,16.80
2018-08-25T08:36:42.981Z,16.90
2018-08-25T08:39:11.047Z,17.00
2018-08-25T08:41:39.672Z,17.10
2018-08-25T08:44:07.976Z,17.20
2018-08-25T08:46:37.006Z,17.40
2018-08-25T08:49:06.553Z,17.60
2018-08-25T08:51:35.822Z,17.70
2018-08-25T08:54:04.018Z,18.00
2018-08-25T08:56:32.153Z,18.20
2018-08-25T08:59:00.646Z,18.10
2018-08-25T09:01:28.722Z,18.30
2018-08-25T09:03:56.988Z,18.60
2018-08-25T09:06:25.079Z,18.50
2018-08-25T09:08:53.229Z,18.70
2018-08-25T09:11:21.351Z,18.90
2018-08-25T09:13:49.616Z,19.20
2018-08-25T09:16:17.762Z,19.60
2018-08-25T09:18:45.868Z,20.00
2018-08-25T09:21:13.942Z,20.30
2018-08-25T09:23:42.025Z,20.30
2018-08-25T09:26:10.112Z,20.50
2018-08-25T09:28:38.174Z,20.50
2018-08-25T09:31:06.249Z,20.60
2018-08-25T09:33:34.346Z,20.50
2018-08-25T09:36:02.676Z,20.90
2018-08-25T09:38:30.805Z,21.10
2018-08-25T09:40:58.872Z,21.30
2018-08-25T09:43:26.957Z,21.30
2018-08-25T09:45:55.047Z,21.20
2018-08-25T09:48:23.118Z,21.30
2018-08-25T09:50:51.193Z,21.00
2018-08-25T09:53:19.280Z,21.00
2018-08-25T09:55:47.374Z,21.00
2018-08-25T09:58:15.432Z,21.00
2018-08-25T10:00:43.603Z,21.10
2018-08-25T10:03:11.712Z,21.20
2018-08-25T10:05:39.766Z,21.50
2018-08-25T10:08:07.834Z,21.70
2018-08-25T10:10:35.926Z,21.90
2018-08-25T10:13:04.016Z,22.30
2018-08-25T10:15:32.080Z,23.00
2018-08-25T10:18:00.157Z,23.20
2018-08-25T10:20:28.222Z,24.00
2018-08-25T10:22:56.308Z,24.60
2018-08-25T10:25:24.374Z,24.70
2018-08-25T10:27:52.428Z,25.50
2018-08-25T10:30:20.473Z,26.50
2018-08-25T10:32:48.573Z,26.40
2018-08-25T10:35:16.615Z,26.50
2018-08-25T10:37:44.968Z,26.30
2018-08-25T10:40:13.167Z,25.30
2018-08-25T10:42:41.220Z,24.90
2018-08-25T10:45:09.292Z,24.80
2018-08-25T10:47:37.680Z,24.40
2018-08-25T10:50:05.969Z,24.10
2018-08-25T10:52:34.025Z,24.40
2018-08-25T10:55:02.133Z,24.40
2018-08-25T10:57:30.209Z,24.20
2018-08-25T10:59:58.321Z,23.80
2018-08-25T11:02:27.699Z,23.30
2018-08-25T11:04:55.770Z,23.30
2018-08-25T11:07:24.494Z,23.30
2018-08-25T11:09:53.294Z,23.70
2018-08-25T11:12:21.746Z,24.20
2018-08-25T11:14:49.829Z,24.90
2018-08-25T11:17:17.884Z,24.90
2018-08-25T11:19:45.956Z,24.70
2018-08-25T11:22:13.996Z,24.20
2018-08-25T11:24:42.111Z,23.40
2018-08-25T11:27:10.185Z,23.40
2018-08-25T11:29:38.220Z,23.80
2018-08-25T11:32:06.295Z,24.10
2018-08-25T11:34:34.353Z,23.50
2018-08-25T11:37:02.414Z,23.20
2018-08-25T11:39:30.532Z,23.80
2018-08-25T11:41:58.669Z,24.90
2018-08-25T11:44:26.753Z,25.40
2018-08-25T11:46:54.842Z,25.40
2018-08-25T11:49:22.899Z,24.90
2018-08-25T11:51:50.966Z,24.40
2018-08-25T11:54:19.029Z,24.20
2018-08-25T11:56:47.134Z,24.10
2018-08-25T11:59:15.168Z,24.00
2018-08-25T12:01:43.237Z,24.20
2018-08-25T12:04:11.288Z,24.80
2018-08-25T12:06:39.338Z,25.10
2018-08-25T12:09:09.672Z,25.80
2018-08-25T12:11:37.708Z,25.60
2018-08-25T12:14:05.748Z,25.30
2018-08-25T12:16:33.827Z,25.30
2018-08-25T12:19:01.900Z,24.90
2018-08-25T12:21:29.957Z,24.50
2018-08-25T12:23:58.057Z,24.20
2018-08-25T12:26:26.089Z,24.20
2018-08-25T12:28:54.131Z,23.90
2018-08-25T12:31:22.181Z,23.50
2018-08-25T12:33:50.485Z,23.20
2018-08-25T12:36:18.537Z,23.00
2018-08-25T12:38:46.629Z,22.80
2018-08-25T12:41:14.660Z,22.70
2018-08-25T12:43:42.697Z,22.60
2018-08-25T12:46:10.761Z,22.50
2018-08-25T12:48:38.871Z,22.50
2018-08-25T12:51:07.090Z,22.40
2018-08-25T12:53:35.150Z,22.40
2018-08-25T12:56:03.226Z,22.40
2018-08-25T12:58:31.273Z,22.40
2018-08-25T13:00:59.336Z,22.30
2018-08-25T13:03:27.400Z,22.30
2018-08-25T13:05:55.512Z,22.20
2018-08-25T13:08:23.621Z,22.20
2018-08-25T13:10:51.695Z,22.10
2018-08-25T13:13:19.748Z,22.00
2018-08-25T13:15:47.813Z,21.80
2018-08-25T13:18:15.848Z,21.80
2018-08-25T13:20:43.932Z,21.70
2018-08-25T13:23:11.992Z,21.80
2018-08-25T13:25:40.026Z,21.90
2018-08-25T13:28:08.077Z,22.00
2018-08-25T13:30:36.144Z,22.00
2018-08-25T13:33:04.184Z,21.80
2018-08-25T13:35:32.216Z,21.80
2018-08-25T13:38:00.363Z,21.80
2018-08-25T13:40:28.377Z,21.60
2018-08-25T13:42:56.428Z,21.60
2018-08-25T13:45:24.547Z,21.60
2018-08-25T13:47:53.313Z,21.50
2018-08-25T13:50:21.517Z,21.50
2018-08-25T13:52:49.604Z,21.50
2018-08-25T13:55:17.674Z,21.50
2018-08-25T13:57:45.712Z,21.30
2018-08-25T14:00:13.798Z,21.20
2018-08-25T14:02:41.860Z,21.00
2018-08-25T14:05:09.963Z,20.80
2018-08-25T14:07:38.017Z,20.60
2018-08-25T14:10:06.103Z,20.20
2018-08-25T14:12:34.149Z,20.00
2018-08-25T14:15:02.217Z,19.60
2018-08-25T14:17:30.261Z,19.10
2018-08-25T14:19:58.297Z,18.90
2018-08-25T14:22:26.421Z,18.80
2018-08-25T14:24:54.763Z,18.80
2018-08-25T14:27:22.828Z,18.80
2018-08-25T14:29:51.635Z,18.80
2018-08-25T14:32:19.813Z,18.80
2018-08-25T14:34:47.885Z,18.80
2018-08-25T14:37:17.592Z,18.90
2018-08-25T14:39:45.897Z,19.10
2018-08-25T14:42:13.929Z,19.10
2018-08-25T14:44:41.994Z,19.20
2018-08-25T14:47:10.140Z,19.10
2018-08-25T14:49:38.208Z,19.10
2018-08-25T14:52:06.341Z,19.10
2018-08-25T14:54:34.415Z,19.00
2018-08-25T14:57:02.453Z,18.90
2018-08-25T14:59:30.526Z,18.80
2018-08-25T15:01:58.585Z,18.90
2018-08-25T15:04:26.641Z,18.90
2018-08-25T15:06:54.776Z,18.90
2018-08-25T15:09:22.859Z,18.90
2018-08-25T15:11:51.687Z,18.80
2018-08-25T15:14:19.821Z,18.90
2018-08-25T15:16:47.894Z,18.80
2018-08-25T15:19:15.946Z,18.80
2018-08-25T15:21:44.029Z,18.70
2018-08-25T15:24:12.119Z,18.80
2018-08-25T15:26:40.750Z,18.80
2018-08-25T15:29:08.889Z,18.80
2018-08-25T15:31:37.198Z,18.80
2018-08-25T15:34:05.261Z,18.90
2018-08-25T15:36:33.345Z,18.80
2018-08-25T15:39:01.409Z,18.80
2018-08-25T15:41:29.564Z,18.80
2018-08-25T15:43:57.645Z,18.80
2018-08-25T15:46:26.686Z,18.90
2018-08-25T15:48:54.734Z,18.80
2018-08-25T15:51:22.806Z,18.80
2018-08-25T15:53:50.899Z,18.70
2018-08-25T15:56:18.965Z,18.70
2018-08-25T15:58:47.063Z,18.60
2018-08-25T16:01:15.146Z,18.50
2018-08-25T16:03:43.207Z,18.50
2018-08-25T16:06:11.298Z,18.50
2018-08-25T16:08:40.084Z,18.50
2018-08-25T16:11:08.200Z,18.50
2018-08-25T16:13:36.326Z,18.50
2018-08-25T16:16:04.517Z,18.60
2018-08-25T16:18:33.879Z,18.50
2018-08-25T16:21:01.941Z,18.50
2018-08-25T16:23:30.000Z,18.40
2018-08-25T16:25:58.105Z,18.40
2018-08-25T16:28:26.266Z,18.40
2018-08-25T16:30:54.343Z,18.40
2018-08-25T16:33:23.208Z,18.40
2018-08-25T16:35:51.334Z,18.30
2018-08-25T16:38:32.615Z,18.30
2018-08-25T16:41:00.745Z,18.30
2018-08-25T16:43:28.846Z,18.30
2018-08-25T16:46:03.101Z,18.30
2018-08-25T16:48:32.178Z,18.40
2018-08-25T16:51:00.222Z,18.40
2018-08-25T16:53:28.743Z,18.40
2018-08-25T16:55:56.923Z,18.40
2018-08-25T16:58:24.961Z,18.40
2018-08-25T17:00:54.653Z,18.40
2018-08-25T17:03:22.804Z,18.30
2018-08-25T17:05:50.886Z,18.40
2018-08-25T17:08:18.950Z,18.30
2018-08-25T17:10:47.017Z,18.20
2018-08-25T17:13:15.128Z,18.20
2018-08-25T17:15:43.197Z,18.10
2018-08-25T17:18:11.343Z,18.10
2018-08-25T17:20:39.421Z,18.10
2018-08-25T17:23:07.543Z,18.00
2018-08-25T17:25:35.610Z,18.00
2018-08-25T17:28:03.829Z,18.00
2018-08-25T17:30:32.037Z,18.00
2018-08-25T17:33:01.096Z,17.90
2018-08-25T17:35:29.148Z,17.90
2018-08-25T17:37:57.287Z,17.80
2018-08-25T17:40:25.461Z,17.80
2018-08-25T17:42:53.532Z,17.80
2018-08-25T17:45:21.697Z,17.70
2018-08-25T17:47:50.405Z,17.70
2018-08-25T17:50:18.665Z,17.60
2018-08-25T17:52:46.761Z,17.60
2018-08-25T17:55:14.969Z,17.60
2018-08-25T17:57:43.289Z,17.50
2018-08-25T18:00:13.261Z,17.50
2018-08-25T18:02:41.339Z,17.40
2018-08-25T18:05:09.449Z,17.40
2018-08-25T18:07:37.598Z,17.40
2018-08-25T18:10:05.677Z,17.30
2018-08-25T18:12:33.764Z,17.30
2018-08-25T18:15:01.891Z,17.20
2018-08-25T18:17:30.002Z,17.20
2018-08-25T18:19:58.101Z,17.10
2018-08-25T18:22:26.203Z,17.10
2018-08-25T18:24:54.277Z,17.00
2018-08-25T18:27:22.317Z,17.00
2018-08-25T18:29:50.414Z,16.90
2018-08-25T18:32:18.465Z,16.90
2018-08-25T18:34:46.581Z,16.90
2018-08-25T18:37:14.675Z,16.90
2018-08-25T18:39:42.747Z,16.80
2018-08-25T18:42:10.849Z,16.80
2018-08-25T18:44:38.918Z,16.70
2018-08-25T18:47:07.005Z,16.70
2018-08-25T18:49:35.197Z,16.70
2018-08-25T18:52:03.272Z,16.70
2018-08-25T18:54:31.418Z,16.70
2018-08-25T18:56:59.482Z,16.60
2018-08-25T18:59:28.030Z,16.70
2018-08-25T19:01:56.187Z,16.60
2018-08-25T19:04:24.243Z,16.50
2018-08-25T19:06:52.344Z,16.50
2018-08-25T19:09:20.432Z,16.50
2018-08-25T19:11:48.518Z,16.40
2018-08-25T19:14:16.720Z,16.30
2018-08-25T19:16:44.766Z,16.30
2018-08-25T19:19:12.881Z,16.30
2018-08-25T19:21:40.987Z,16.20
2018-08-25T19:24:09.169Z,16.20
2018-08-25T19:26:37.176Z,16.20
2018-08-25T19:29:05.254Z,16.20
2018-08-25T19:31:33.295Z,16.10
2018-08-25T19:34:01.413Z,16.10
2018-08-25T19:36:29.489Z,16.00
2018-08-25T19:38:57.574Z,16.00
2018-08-25T19:41:25.734Z,15.90
2018-08-25T19:43:53.786Z,15.90
2018-08-25T19:46:21.832Z,15.90
2018-08-25T19:48:49.881Z,15.80
2018-08-25T19:51:17.969Z,15.70
2018-08-25T19:53:46.021Z,15.60
2018-08-25T19:56:14.078Z,15.60
2018-08-25T19:58:42.162Z,15.60
2018-08-25T20:01:10.240Z,15.60
2018-08-25T20:03:38.364Z,15.50
2018-08-25T20:06:06.523Z,15.50
2018-08-25T20:08:34.681Z,15.50
2018-08-25T20:11:02.830Z,15.40
2018-08-25T20:13:30.966Z,15.40
2018-08-25T20:15:59.037Z,15.40
2018-08-25T20:18:27.069Z,15.40
2018-08-25T20:20:55.235Z,15.40
2018-08-25T20:23:23.286Z,15.30
2018-08-25T20:25:51.380Z,15.20
2018-08-25T20:28:19.464Z,15.20
2018-08-25T20:30:47.621Z,15.10
2018-08-25T20:33:15.636Z,15.10
2018-08-25T20:35:43.734Z,15.10
2018-08-25T20:38:18.578Z,15.00
2018-08-25T20:40:46.750Z,15.00
2018-08-25T20:43:14.830Z,15.00
2018-08-25T20:45:42.890Z,14.90
2018-08-25T20:48:10.968Z,14.90
2018-08-25T20:50:39.041Z,14.80
2018-08-25T20:53:07.101Z,14.90
2018-08-25T20:55:35.194Z,14.80
2018-08-25T20:58:03.279Z,14.80
2018-08-25T21:00:31.378Z,14.70
2018-08-25T21:02:59.501Z,14.70
2018-08-25T21:05:27.563Z,14.60
2018-08-25T21:07:55.666Z,14.60
2018-08-25T21:10:23.801Z,14.50
2018-08-25T21:12:51.874Z,14.50
2018-08-25T21:15:19.957Z,14.50
2018-08-25T21:17:48.286Z,14.50
2018-08-25T21:20:16.336Z,14.50
2018-08-25T21:22:44.425Z,14.40
2018-08-25T21:25:12.461Z,14.40
2018-08-25T21:27:40.504Z,14.40
2018-08-25T21:30:09.494Z,14.40
2018-08-25T21:32:37.674Z,14.30
2018-08-25T21:35:06.353Z,14.20
2018-08-25T21:37:34.641Z,14.20
2018-08-25T21:40:02.729Z,14.10
2018-08-25T21:42:30.797Z,14.10
2018-08-25T21:44:58.839Z,14.10
2018-08-25T21:47:27.259Z,14.10
2018-08-25T21:49:55.306Z,14.10
2018-08-25T21:52:23.368Z,14.00
2018-08-25T21:54:51.436Z,14.10
2018-08-25T21:57:19.493Z,14.00
2018-08-25T21:59:47.547Z,14.00
2018-08-25T22:02:17.937Z,13.90
2018-08-25T22:04:46.032Z,13.90
2018-08-25T22:07:14.100Z,13.90
2018-08-25T22:09:42.186Z,13.80
2018-08-25T22:12:10.295Z,13.90
2018-08-25T22:14:38.372Z,13.80
2018-08-25T22:17:06.501Z,13.90
2018-08-25T22:19:34.576Z,13.90
2018-08-25T22:22:02.676Z,13.90
2018-08-25T22:24:30.788Z,13.80
2018-08-25T22:26:58.833Z,13.80
2018-08-25T22:29:26.928Z,13.80
2018-08-25T22:31:55.006Z,13.80
2018-08-25T22:34:23.052Z,13.70
2018-08-25T22:36:51.105Z,13.70
2018-08-25T22:39:19.189Z,13.70
2018-08-25T22:41:47.326Z,13.70
2018-08-25T22:44:15.337Z,13.70
2018-08-25T22:46:43.405Z,13.70
2018-08-25T22:49:11.482Z,13.70
2018-08-25T22:51:39.543Z,13.70
2018-08-25T22:54:07.624Z,13.80
2018-08-25T22:56:35.680Z,13.70
2018-08-25T22:59:03.741Z,13.70
2018-08-25T23:01:31.894Z,13.70
2018-08-25T23:03:59.904Z,13.70
2018-08-25T23:06:27.963Z,13.70
2018-08-25T23:08:56.063Z,13.70
2018-08-25T23:11:24.113Z,13.70
2018-08-25T23:13:52.185Z,13.70
2018-08-25T23:16:20.264Z,13.80
2018-08-25T23:18:48.360Z,13.80
2018-08-25T23:21:16.418Z,13.70
2018-08-25T23:23:44.496Z,13.70
2018-08-25T23:26:12.584Z,13.70
2018-08-25T23:28:40.657Z,13.60
2018-08-25T23:31:08.737Z,13.70
2018-08-25T23:33:36.757Z,13.70
2018-08-25T23:36:04.804Z,13.60
2018-08-25T23:38:32.872Z,13.70
2018-08-25T23:41:00.976Z,13.70
2018-08-25T23:43:29.029Z,13.70
2018-08-25T23:45:57.137Z,13.70
2018-08-25T23:48:25.189Z,13.70
2018-08-25T23:50:53.231Z,13.70
2018-08-25T23:53:21.312Z,13.70
2018-08-25T23:55:49.341Z,13.70
2018-08-25T23:58:17.365Z,13.70
